createdAt,value
2023-04-02T00:00:29.126Z,1012.00
2023-04-02T00:01:29.196Z,991.00
2023-04-02T00:02:29.431Z,990.00
2023-04-02T00:03:29.361Z,976.00
2023-04-02T00:04:29.409Z,991.00
2023-04-02T00:05:29.516Z,991.00
2023-04-02T00:06:29.575Z,979.00
2023-04-02T00:07:29.635Z,996.00
2023-04-02T00:08:29.719Z,989.00
2023-04-02T00:09:29.781Z,981.00
2023-04-02T00:10:29.870Z,984.00
2023-04-02T00:11:29.942Z,978.00
2023-04-02T00:12:30.110Z,977.00
2023-04-02T00:13:30.106Z,968.00
2023-04-02T00:14:30.118Z,973.00
2023-04-02T00:15:30.222Z,990.00
2023-04-02T00:16:30.372Z,974.00
2023-04-02T00:17:30.338Z,974.00
2023-04-02T00:18:30.412Z,975.00
2023-04-02T00:19:30.521Z,976.00
2023-04-02T00:20:30.572Z,969.00
2023-04-02T00:21:30.671Z,968.00
2023-04-02T00:22:30.703Z,974.00
2023-04-02T00:23:30.748Z,968.00
2023-04-02T00:24:30.876Z,967.00
2023-04-02T00:25:30.941Z,962.00
2023-04-02T00:26:30.986Z,972.00
2023-04-02T00:27:31.099Z,971.00
2023-04-02T00:28:31.144Z,967.00
2023-04-02T00:29:31.228Z,960.00
2023-04-02T00:30:31.288Z,959.00
2023-04-02T00:31:31.379Z,956.00
2023-04-02T00:32:31.466Z,953.00
2023-04-02T00:33:31.540Z,961.00
2023-04-02T00:34:31.609Z,956.00
2023-04-02T00:35:31.660Z,948.00
2023-04-02T00:36:31.790Z,952.00
2023-04-02T00:37:31.830Z,955.00
2023-04-02T00:38:31.887Z,952.00
2023-04-02T00:39:31.984Z,956.00
2023-04-02T00:40:32.037Z,955.00
2023-04-02T00:41:32.069Z,961.00
2023-04-02T00:42:32.153Z,959.00
2023-04-02T00:43:32.216Z,958.00
2023-04-02T00:44:32.247Z,966.00
2023-04-02T00:45:32.551Z,958.00
2023-04-02T00:46:32.557Z,948.00
2023-04-02T00:47:32.485Z,950.00
2023-04-02T00:48:32.551Z,954.00
2023-04-02T00:49:32.620Z,949.00
2023-04-02T00:50:32.682Z,951.00
2023-04-02T00:51:32.745Z,950.00
2023-04-02T00:52:32.827Z,946.00
2023-04-02T00:53:32.890Z,953.00
2023-04-02T00:54:32.980Z,954.00
2023-04-02T00:55:33.235Z,950.00
2023-04-02T00:56:33.067Z,949.00
2023-04-02T00:57:33.180Z,954.00
2023-04-02T00:58:33.289Z,951.00
2023-04-02T00:59:33.310Z,958.00
2023-04-02T01:00:33.417Z,952.00
2023-04-02T01:01:33.450Z,958.00
2023-04-02T01:02:33.627Z,949.00
2023-04-02T01:03:33.807Z,954.00
2023-04-02T01:04:33.658Z,949.00
2023-04-02T01:05:33.910Z,929.00
2023-04-02T01:06:33.786Z,939.00
2023-04-02T01:07:33.883Z,941.00
2023-04-02T01:08:33.901Z,925.00
2023-04-02T01:09:34.001Z,935.00
2023-04-02T01:10:34.036Z,936.00
2023-04-02T01:11:34.118Z,921.00
2023-04-02T01:12:34.207Z,935.00
2023-04-02T01:13:34.270Z,920.00
2023-04-02T01:14:34.341Z,923.00
2023-04-02T01:15:34.675Z,929.00
2023-04-02T01:16:34.496Z,923.00
2023-04-02T01:17:34.593Z,928.00
2023-04-02T01:18:34.630Z,919.00
2023-04-02T01:19:34.710Z,917.00
2023-04-02T01:20:34.855Z,924.00
2023-04-02T01:21:34.894Z,923.00
2023-04-02T01:22:35.025Z,912.00
2023-04-02T01:23:35.029Z,919.00
2023-04-02T01:24:35.104Z,920.00
2023-04-02T01:25:35.310Z,903.00
2023-04-02T01:26:35.269Z,921.00
2023-04-02T01:27:35.323Z,916.00
2023-04-02T01:28:35.395Z,914.00
2023-04-02T01:29:35.484Z,917.00
2023-04-02T01:30:35.539Z,918.00
2023-04-02T01:31:35.606Z,922.00
2023-04-02T01:32:35.675Z,914.00
2023-04-02T01:33:35.747Z,908.00
2023-04-02T01:34:35.794Z,916.00
2023-04-02T01:35:36.032Z,916.00
2023-04-02T01:36:35.924Z,911.00
2023-04-02T01:37:36.021Z,905.00
2023-04-02T01:38:36.088Z,909.00
2023-04-02T01:39:36.134Z,897.00
2023-04-02T01:40:36.219Z,907.00
2023-04-02T01:41:36.260Z,910.00
2023-04-02T01:42:36.343Z,912.00
2023-04-02T01:43:36.434Z,901.00
2023-04-02T01:44:36.502Z,902.00
2023-04-02T01:45:36.920Z,911.00
2023-04-02T01:46:36.620Z,898.00
2023-04-02T01:47:36.808Z,910.00
2023-04-02T01:48:36.784Z,920.00
2023-04-02T01:49:36.869Z,900.00
2023-04-02T01:50:36.898Z,905.00
2023-04-02T01:51:36.970Z,898.00
2023-04-02T01:52:37.071Z,909.00
2023-04-02T01:53:37.172Z,905.00
2023-04-02T01:54:37.228Z,906.00
2023-04-02T01:55:37.391Z,901.00
2023-04-02T01:56:37.339Z,892.00
2023-04-02T01:57:37.413Z,896.00
2023-04-02T01:58:37.546Z,907.00
2023-04-02T01:59:37.598Z,903.00
2023-04-02T02:00:37.736Z,891.00
2023-04-02T02:01:37.746Z,904.00
2023-04-02T02:02:37.949Z,896.00
2023-04-02T02:03:37.894Z,890.00
2023-04-02T02:04:37.968Z,893.00
2023-04-02T02:05:38.055Z,905.00
2023-04-02T02:06:38.126Z,900.00
2023-04-02T02:07:38.231Z,894.00
2023-04-02T02:08:38.276Z,888.00
2023-04-02T02:09:38.360Z,880.00
2023-04-02T02:10:38.434Z,894.00
2023-04-02T02:11:38.528Z,881.00
2023-04-02T02:12:38.586Z,898.00
2023-04-02T02:13:39.895Z,891.00
2023-04-02T02:14:38.666Z,892.00
2023-04-02T02:15:38.693Z,877.00
2023-04-02T02:16:38.786Z,878.00
2023-04-02T02:17:38.785Z,877.00
2023-04-02T02:18:38.753Z,881.00
2023-04-02T02:19:38.788Z,881.00
2023-04-02T02:20:38.801Z,886.00
2023-04-02T02:21:38.847Z,877.00
2023-04-02T02:22:38.876Z,882.00
2023-04-02T02:23:38.913Z,874.00
2023-04-02T02:24:38.963Z,878.00
2023-04-02T02:25:38.942Z,892.00
2023-04-02T02:26:38.956Z,884.00
2023-04-02T02:27:38.993Z,867.00
2023-04-02T02:28:39.024Z,894.00
2023-04-02T02:29:39.145Z,879.00
2023-04-02T02:30:39.069Z,891.00
2023-04-02T02:31:39.117Z,876.00
2023-04-02T02:32:39.167Z,874.00
2023-04-02T02:33:39.129Z,877.00
2023-04-02T02:34:39.152Z,876.00
2023-04-02T02:35:39.295Z,889.00
2023-04-02T02:36:39.213Z,891.00
2023-04-02T02:37:39.223Z,872.00
2023-04-02T02:38:39.277Z,882.00
2023-04-02T02:39:39.277Z,894.00
2023-04-02T02:40:39.302Z,887.00
2023-04-02T02:41:39.317Z,880.00
2023-04-02T02:42:39.352Z,875.00
2023-04-02T02:43:39.376Z,884.00
2023-04-02T02:44:39.403Z,883.00
2023-04-02T02:45:39.451Z,882.00
2023-04-02T02:46:39.430Z,876.00
2023-04-02T02:47:39.486Z,883.00
2023-04-02T02:48:39.504Z,881.00
2023-04-02T02:49:39.506Z,877.00
2023-04-02T02:50:39.568Z,873.00
2023-04-02T02:51:39.602Z,869.00
2023-04-02T02:52:39.616Z,882.00
2023-04-02T02:53:39.640Z,878.00
2023-04-02T02:54:39.635Z,867.00
2023-04-02T02:55:39.659Z,873.00
2023-04-02T02:56:39.706Z,881.00
2023-04-02T02:57:39.762Z,884.00
2023-04-02T02:58:39.750Z,880.00
2023-04-02T02:59:39.798Z,875.00
2023-04-02T03:00:39.825Z,876.00
2023-04-02T03:01:39.881Z,881.00
2023-04-02T03:02:39.946Z,879.00
2023-04-02T03:03:40.159Z,878.00
2023-04-02T03:04:39.951Z,878.00
2023-04-02T03:05:40.008Z,883.00
2023-04-02T03:06:40.119Z,874.00
2023-04-02T03:07:40.197Z,875.00
2023-04-02T03:08:40.309Z,870.00
2023-04-02T03:09:40.374Z,882.00
2023-04-02T03:10:40.412Z,864.00
2023-04-02T03:11:40.476Z,880.00
2023-04-02T03:12:40.630Z,865.00
2023-04-02T03:13:40.668Z,872.00
2023-04-02T03:14:40.760Z,863.00
2023-04-02T03:15:40.887Z,877.00
2023-04-02T03:16:40.890Z,878.00
2023-04-02T03:17:41.026Z,864.00
2023-04-02T03:18:41.076Z,873.00
2023-04-02T03:19:41.128Z,871.00
2023-04-02T03:20:41.215Z,876.00
2023-04-02T03:21:41.293Z,881.00
2023-04-02T03:22:41.414Z,869.00
2023-04-02T03:23:41.471Z,866.00
2023-04-02T03:24:41.571Z,881.00
2023-04-02T03:25:41.650Z,875.00
2023-04-02T03:26:41.727Z,872.00
2023-04-02T03:27:41.802Z,872.00
2023-04-02T03:28:41.885Z,866.00
2023-04-02T03:29:41.924Z,874.00
2023-04-02T03:30:42.054Z,872.00
2023-04-02T03:31:42.144Z,870.00
2023-04-02T03:32:42.231Z,868.00
2023-04-02T03:33:42.237Z,861.00
2023-04-02T03:34:42.295Z,873.00
2023-04-02T03:35:42.409Z,856.00
2023-04-02T03:36:42.478Z,871.00
2023-04-02T03:37:42.558Z,858.00
2023-04-02T03:38:42.607Z,859.00
2023-04-02T03:39:42.684Z,860.00
2023-04-02T03:40:42.749Z,856.00
2023-04-02T03:41:42.822Z,856.00
2023-04-02T03:42:42.902Z,853.00
2023-04-02T03:43:42.977Z,865.00
2023-04-02T03:44:43.071Z,861.00
2023-04-02T03:45:43.149Z,859.00
2023-04-02T03:46:43.234Z,852.00
2023-04-02T03:47:43.339Z,863.00
2023-04-02T03:48:43.398Z,870.00
2023-04-02T03:49:43.451Z,860.00
2023-04-02T03:50:43.560Z,857.00
2023-04-02T03:51:43.611Z,859.00
2023-04-02T03:52:43.687Z,849.00
2023-04-02T03:53:43.762Z,867.00
2023-04-02T03:54:53.802Z,866.00
2023-04-02T03:55:44.872Z,867.00
2023-04-02T03:56:43.865Z,867.00
2023-04-02T03:57:43.889Z,867.00
2023-04-02T03:58:43.906Z,869.00
2023-04-02T03:59:43.910Z,876.00
2023-04-02T04:00:43.960Z,874.00
2023-04-02T04:01:44.036Z,873.00
2023-04-02T04:02:44.034Z,861.00
2023-04-02T04:03:44.061Z,858.00
2023-04-02T04:04:44.048Z,859.00
2023-04-02T04:05:44.078Z,850.00
2023-04-02T04:06:44.112Z,865.00
2023-04-02T04:07:44.111Z,849.00
2023-04-02T04:08:44.142Z,860.00
2023-04-02T04:09:44.166Z,857.00
2023-04-02T04:10:44.205Z,856.00
2023-04-02T04:11:44.212Z,861.00
2023-04-02T04:12:44.197Z,855.00
2023-04-02T04:13:44.341Z,846.00
2023-04-02T04:14:45.311Z,856.00
2023-04-02T04:15:44.270Z,859.00
2023-04-02T04:16:44.345Z,864.00
2023-04-02T04:17:44.338Z,859.00
2023-04-02T04:18:44.351Z,865.00
2023-04-02T04:19:44.407Z,862.00
2023-04-02T04:20:44.391Z,846.00
2023-04-02T04:21:44.402Z,852.00
2023-04-02T04:22:44.435Z,856.00
2023-04-02T04:23:44.454Z,848.00
2023-04-02T04:24:44.497Z,859.00
2023-04-02T04:25:44.476Z,866.00
2023-04-02T04:26:44.557Z,856.00
2023-04-02T04:27:44.524Z,852.00
2023-04-02T04:28:44.601Z,860.00
2023-04-02T04:29:44.573Z,843.00
2023-04-02T04:30:44.601Z,857.00
2023-04-02T04:31:44.656Z,850.00
2023-04-02T04:32:44.680Z,860.00
2023-04-02T04:33:44.680Z,850.00
2023-04-02T04:34:44.710Z,851.00
2023-04-02T04:35:44.787Z,855.00
2023-04-02T04:36:44.726Z,851.00
2023-04-02T04:37:44.774Z,862.00
2023-04-02T04:38:44.791Z,854.00
2023-04-02T04:39:44.851Z,837.00
2023-04-02T04:40:44.874Z,848.00
2023-04-02T04:41:45.039Z,851.00
2023-04-02T04:42:45.096Z,852.00
2023-04-02T04:43:45.146Z,847.00
2023-04-02T04:44:45.264Z,866.00
2023-04-02T04:45:45.324Z,851.00
2023-04-02T04:46:45.402Z,854.00
2023-04-02T04:47:45.505Z,842.00
2023-04-02T04:48:45.591Z,849.00
2023-04-02T04:49:45.619Z,848.00
2023-04-02T04:50:45.712Z,843.00
2023-04-02T04:51:45.757Z,841.00
2023-04-02T04:52:45.831Z,844.00
2023-04-02T04:53:45.885Z,841.00
2023-04-02T04:54:45.945Z,849.00
2023-04-02T04:55:46.056Z,849.00
2023-04-02T04:56:46.111Z,842.00
2023-04-02T04:57:46.196Z,841.00
2023-04-02T04:58:46.268Z,843.00
2023-04-02T04:59:46.320Z,844.00
2023-04-02T05:00:46.564Z,842.00
2023-04-02T05:01:46.525Z,842.00
2023-04-02T05:02:46.553Z,839.00
2023-04-02T05:03:46.597Z,843.00
2023-04-02T05:04:46.779Z,838.00
2023-04-02T05:05:46.789Z,838.00
2023-04-02T05:06:46.880Z,846.00
2023-04-02T05:07:46.963Z,844.00
2023-04-02T05:08:47.021Z,845.00
2023-04-02T05:09:47.103Z,842.00
2023-04-02T05:10:47.173Z,832.00
2023-04-02T05:11:47.239Z,840.00
2023-04-02T05:12:47.304Z,838.00
2023-04-02T05:13:47.384Z,839.00
2023-04-02T05:14:47.439Z,836.00
2023-04-02T05:15:47.537Z,843.00
2023-04-02T05:16:47.612Z,835.00
2023-04-02T05:17:47.728Z,847.00
2023-04-02T05:18:47.782Z,838.00
2023-04-02T05:19:47.841Z,837.00
2023-04-02T05:20:47.917Z,830.00
2023-04-02T05:21:47.974Z,823.00
2023-04-02T05:22:48.111Z,833.00
2023-04-02T05:23:48.147Z,848.00
2023-04-02T05:24:48.223Z,833.00
2023-04-02T05:25:48.344Z,844.00
2023-04-02T05:26:48.399Z,825.00
2023-04-02T05:27:48.467Z,830.00
2023-04-02T05:28:48.524Z,838.00
2023-04-02T05:29:48.592Z,828.00
2023-04-02T05:30:48.649Z,833.00
2023-04-02T05:31:48.900Z,829.00
2023-04-02T05:32:48.863Z,823.00
2023-04-02T05:33:48.922Z,809.00
2023-04-02T05:34:48.976Z,819.00
2023-04-02T05:35:49.125Z,822.00
2023-04-02T05:36:49.152Z,830.00
2023-04-02T05:37:49.202Z,818.00
2023-04-02T05:38:49.275Z,819.00
2023-04-02T05:39:49.337Z,818.00
2023-04-02T05:40:49.444Z,828.00
2023-04-02T05:41:49.532Z,816.00
2023-04-02T05:42:49.577Z,815.00
2023-04-02T05:43:49.677Z,822.00
2023-04-02T05:44:49.756Z,814.00
2023-04-02T05:45:49.828Z,816.00
2023-04-02T05:46:49.981Z,810.00
2023-04-02T05:47:50.045Z,828.00
2023-04-02T05:48:50.095Z,823.00
2023-04-02T05:49:50.136Z,830.00
2023-04-02T05:50:50.219Z,813.00
2023-04-02T05:51:50.331Z,815.00
2023-04-02T05:52:50.373Z,825.00
2023-04-02T05:53:50.448Z,812.00
2023-04-02T05:54:50.537Z,817.00
2023-04-02T05:55:50.608Z,821.00
2023-04-02T05:56:50.678Z,813.00
2023-04-02T05:58:07.004Z,810.00
2023-04-02T05:58:51.861Z,811.00
2023-04-02T05:59:50.802Z,812.00
2023-04-02T06:00:50.781Z,815.00
2023-04-02T06:01:50.859Z,812.00
2023-04-02T06:02:50.903Z,818.00
2023-04-02T06:03:50.918Z,813.00
2023-04-02T06:04:50.880Z,814.00
2023-04-02T06:05:50.917Z,817.00
2023-04-02T06:06:50.953Z,818.00
2023-04-02T06:07:50.968Z,805.00
2023-04-02T06:08:50.973Z,823.00
2023-04-02T06:09:51.062Z,807.00
2023-04-02T06:10:51.155Z,804.00
2023-04-02T06:11:51.245Z,809.00
2023-04-02T06:12:51.578Z,811.00
2023-04-02T06:13:51.399Z,805.00
2023-04-02T06:14:51.456Z,820.00
2023-04-02T06:15:51.551Z,803.00
2023-04-02T06:16:51.669Z,816.00
2023-04-02T06:17:51.752Z,815.00
2023-04-02T06:18:51.826Z,824.00
2023-04-02T06:19:51.834Z,814.00
2023-04-02T06:20:51.901Z,804.00
2023-04-02T06:21:51.959Z,803.00
2023-04-02T06:22:52.029Z,809.00
2023-04-02T06:23:52.139Z,814.00
2023-04-02T06:24:52.195Z,811.00
2023-04-02T06:25:53.343Z,795.00
2023-04-02T06:26:52.326Z,802.00
2023-04-02T06:27:52.449Z,798.00
2023-04-02T06:28:52.501Z,801.00
2023-04-02T06:29:52.531Z,806.00
2023-04-02T06:30:52.676Z,803.00
2023-04-02T06:31:52.682Z,811.00
2023-04-02T06:32:52.821Z,808.00
2023-04-02T06:33:52.868Z,802.00
2023-04-02T06:34:52.910Z,798.00
2023-04-02T06:35:53.025Z,812.00
2023-04-02T06:36:53.091Z,806.00
2023-04-02T06:37:53.183Z,814.00
2023-04-02T06:38:53.208Z,803.00
2023-04-02T06:39:53.314Z,809.00
2023-04-02T06:40:53.375Z,800.00
2023-04-02T06:41:53.449Z,810.00
2023-04-02T06:42:53.542Z,790.00
2023-04-02T06:43:53.610Z,802.00
2023-04-02T06:44:53.671Z,796.00
2023-04-02T06:45:53.783Z,788.00
2023-04-02T06:46:53.803Z,798.00
2023-04-02T06:47:53.927Z,792.00
2023-04-02T06:48:53.959Z,799.00
2023-04-02T06:49:54.020Z,789.00
2023-04-02T06:50:54.093Z,801.00
2023-04-02T06:51:54.163Z,806.00
2023-04-02T06:52:54.260Z,808.00
2023-04-02T06:53:54.292Z,801.00
2023-04-02T06:54:54.420Z,796.00
2023-04-02T06:55:54.495Z,812.00
2023-04-02T06:56:54.555Z,793.00
2023-04-02T06:57:54.608Z,796.00
2023-04-02T06:58:54.674Z,784.00
2023-04-02T06:59:54.737Z,795.00
2023-04-02T07:00:54.831Z,775.00
2023-04-02T07:01:54.910Z,796.00
2023-04-02T07:02:54.981Z,799.00
2023-04-02T07:03:55.014Z,791.00
2023-04-02T07:04:55.104Z,785.00
2023-04-02T07:05:55.176Z,783.00
2023-04-02T07:06:55.194Z,788.00
2023-04-02T07:07:55.346Z,782.00
2023-04-02T07:08:55.392Z,797.00
2023-04-02T07:09:55.449Z,774.00
2023-04-02T07:10:55.507Z,801.00
2023-04-02T07:11:55.530Z,794.00
2023-04-02T07:12:55.617Z,791.00
2023-04-02T07:13:55.691Z,787.00
2023-04-02T07:14:55.727Z,792.00
2023-04-02T07:15:55.839Z,789.00
2023-04-02T07:16:55.920Z,802.00
2023-04-02T07:17:56.031Z,798.00
2023-04-02T07:18:56.026Z,797.00
2023-04-02T07:19:56.182Z,783.00
2023-04-02T07:20:56.146Z,798.00
2023-04-02T07:21:56.225Z,787.00
2023-04-02T07:22:56.292Z,802.00
2023-04-02T07:23:56.425Z,782.00
2023-04-02T07:24:56.413Z,789.00
2023-04-02T07:25:56.479Z,790.00
2023-04-02T07:26:56.596Z,808.00
2023-04-02T07:27:56.659Z,786.00
2023-04-02T07:28:56.701Z,782.00
2023-04-02T07:29:56.775Z,778.00
2023-04-02T07:30:56.827Z,795.00
2023-04-02T07:31:56.948Z,790.00
2023-04-02T07:32:57.013Z,808.00
2023-04-02T07:33:57.011Z,797.00
2023-04-02T07:34:57.083Z,782.00
2023-04-02T07:35:57.183Z,801.00
2023-04-02T07:36:57.237Z,806.00
2023-04-02T07:37:57.309Z,779.00
2023-04-02T07:38:57.361Z,786.00
2023-04-02T07:39:57.440Z,799.00
2023-04-02T07:40:57.483Z,788.00
2023-04-02T07:41:57.563Z,796.00
2023-04-02T07:42:57.625Z,802.00
2023-04-02T07:43:57.745Z,777.00
2023-04-02T07:44:57.746Z,792.00
2023-04-02T07:45:57.795Z,784.00
2023-04-02T07:46:57.955Z,777.00
2023-04-02T07:47:57.968Z,778.00
2023-04-02T07:48:58.022Z,794.00
2023-04-02T07:49:58.043Z,773.00
2023-04-02T07:50:58.107Z,802.00
2023-04-02T07:51:59.078Z,781.00
2023-04-02T07:52:58.257Z,786.00
2023-04-02T07:53:58.314Z,789.00
2023-04-02T07:54:58.432Z,770.00
2023-04-02T07:55:58.483Z,777.00
2023-04-02T07:56:58.571Z,774.00
2023-04-02T07:57:58.598Z,777.00
2023-04-02T07:58:58.693Z,786.00
2023-04-02T07:59:58.755Z,768.00
2023-04-02T08:00:58.841Z,791.00
2023-04-02T08:01:58.962Z,772.00
2023-04-02T08:02:59.085Z,791.00
2023-04-02T08:03:59.047Z,782.00
2023-04-02T08:04:59.128Z,783.00
2023-04-02T08:05:59.193Z,765.00
2023-04-02T08:06:59.250Z,764.00
2023-04-02T08:07:59.359Z,767.00
2023-04-02T08:08:59.342Z,762.00
2023-04-02T08:09:59.441Z,769.00
2023-04-02T08:10:59.514Z,780.00
2023-04-02T08:11:59.587Z,767.00
2023-04-02T08:12:59.654Z,769.00
2023-04-02T08:13:59.748Z,775.00
2023-04-02T08:14:59.812Z,769.00
2023-04-02T08:15:59.832Z,786.00
2023-04-02T08:16:59.892Z,771.00
2023-04-02T08:18:00.010Z,771.00
2023-04-02T08:19:00.065Z,781.00
2023-04-02T08:20:00.175Z,781.00
2023-04-02T08:21:00.195Z,776.00
2023-04-02T08:22:00.244Z,768.00
2023-04-02T08:23:00.353Z,763.00
2023-04-02T08:24:00.410Z,757.00
2023-04-02T08:25:00.433Z,753.00
2023-04-02T08:26:00.538Z,780.00
2023-04-02T08:27:00.594Z,754.00
2023-04-02T08:28:00.669Z,761.00
2023-04-02T08:29:00.713Z,755.00
2023-04-02T08:30:00.788Z,742.00
2023-04-02T08:31:00.931Z,723.00
2023-04-02T08:32:00.932Z,740.00
2023-04-02T08:33:01.019Z,740.00
2023-04-02T08:34:01.043Z,740.00
2023-04-02T08:35:01.137Z,738.00
2023-04-02T08:36:01.206Z,742.00
2023-04-02T08:37:01.292Z,727.00
2023-04-02T08:38:01.389Z,732.00
2023-04-02T08:39:01.458Z,738.00
2023-04-02T08:40:01.465Z,762.00
2023-04-02T08:41:01.664Z,749.00
2023-04-02T08:42:01.616Z,740.00
2023-04-02T08:43:01.672Z,744.00
2023-04-02T08:44:01.813Z,754.00
2023-04-02T08:45:08.109Z,734.00
2023-04-02T08:46:03.013Z,735.00
2023-04-02T08:47:01.946Z,737.00
2023-04-02T08:48:02.018Z,733.00
2023-04-02T08:49:01.996Z,717.00
2023-04-02T08:50:01.935Z,697.00
2023-04-02T08:51:01.952Z,692.00
2023-04-02T08:52:01.953Z,690.00
2023-04-02T08:53:02.009Z,684.00
2023-04-02T08:54:02.010Z,700.00
2023-04-02T08:55:02.045Z,688.00
2023-04-02T08:56:02.044Z,681.00
2023-04-02T08:57:02.148Z,673.00
2023-04-02T08:58:02.248Z,685.00
2023-04-02T08:59:02.282Z,670.00
2023-04-02T09:00:02.351Z,683.00
2023-04-02T09:01:02.361Z,684.00
2023-04-02T09:02:02.455Z,673.00
2023-04-02T09:03:02.597Z,686.00
2023-04-02T09:04:02.615Z,669.00
2023-04-02T09:05:02.710Z,671.00
2023-04-02T09:06:02.768Z,675.00
2023-04-02T09:07:02.837Z,669.00
2023-04-02T09:08:02.961Z,680.00
2023-04-02T09:09:02.958Z,672.00
2023-04-02T09:10:02.985Z,665.00
2023-04-02T09:11:03.087Z,661.00
2023-04-02T09:12:03.193Z,671.00
2023-04-02T09:13:03.272Z,664.00
2023-04-02T09:14:03.310Z,663.00
2023-04-02T09:15:03.375Z,663.00
2023-04-02T09:16:03.507Z,657.00
2023-04-02T09:17:03.491Z,669.00
2023-04-02T09:18:03.617Z,668.00
2023-04-02T09:19:03.635Z,666.00
2023-04-02T09:20:03.666Z,661.00
2023-04-02T09:21:03.763Z,670.00
2023-04-02T09:22:03.817Z,666.00
2023-04-02T09:23:03.907Z,661.00
2023-04-02T09:24:04.726Z,664.00
2023-04-02T09:25:04.049Z,660.00
2023-04-02T09:26:05.028Z,667.00
2023-04-02T09:27:04.177Z,661.00
2023-04-02T09:28:04.251Z,662.00
2023-04-02T09:29:04.296Z,655.00
2023-04-02T09:30:04.356Z,662.00
2023-04-02T09:31:06.661Z,654.00
2023-04-02T09:32:04.581Z,653.00
2023-04-02T09:33:04.442Z,652.00
2023-04-02T09:34:04.431Z,657.00
2023-04-02T09:35:12.275Z,658.00
2023-04-02T09:36:05.567Z,658.00
2023-04-02T09:37:04.479Z,658.00
2023-04-02T09:38:04.517Z,659.00
2023-04-02T09:39:04.512Z,659.00
2023-04-02T09:40:04.552Z,658.00
2023-04-02T09:41:04.557Z,661.00
2023-04-02T09:42:05.973Z,657.00
2023-04-02T09:43:04.563Z,654.00
2023-04-02T09:44:04.631Z,658.00
2023-04-02T09:45:04.648Z,651.00
2023-04-02T09:46:04.645Z,658.00
2023-04-02T09:47:04.831Z,652.00
2023-04-02T09:48:04.770Z,655.00
2023-04-02T09:49:04.750Z,657.00
2023-04-02T09:50:04.807Z,653.00
2023-04-02T09:51:04.856Z,651.00
2023-04-02T09:52:04.899Z,652.00
2023-04-02T09:53:04.945Z,658.00
2023-04-02T09:54:05.013Z,654.00
2023-04-02T09:55:05.100Z,649.00
2023-04-02T09:56:05.153Z,651.00
2023-04-02T09:57:05.222Z,651.00
2023-04-02T09:58:05.283Z,649.00
2023-04-02T09:59:05.320Z,649.00
2023-04-02T10:00:05.397Z,654.00
2023-04-02T10:01:05.461Z,655.00
2023-04-02T10:02:05.522Z,656.00
2023-04-02T10:03:05.602Z,652.00
2023-04-02T10:04:05.662Z,648.00
2023-04-02T10:05:05.707Z,646.00
2023-04-02T10:06:05.758Z,647.00
2023-04-02T10:07:05.825Z,641.00
2023-04-02T10:08:05.890Z,641.00
2023-04-02T10:09:05.952Z,645.00
2023-04-02T10:10:06.029Z,646.00
2023-04-02T10:11:06.073Z,650.00
2023-04-02T10:12:06.203Z,646.00
2023-04-02T10:13:06.211Z,642.00
2023-04-02T10:14:06.281Z,644.00
2023-04-02T10:15:06.369Z,638.00
2023-04-02T10:16:06.433Z,637.00
2023-04-02T10:17:06.589Z,639.00
2023-04-02T10:18:06.640Z,640.00
2023-04-02T10:19:06.676Z,642.00
2023-04-02T10:20:06.715Z,632.00
2023-04-02T10:21:06.776Z,633.00
2023-04-02T10:22:06.852Z,625.00
2023-04-02T10:23:06.909Z,635.00
2023-04-02T10:24:06.971Z,630.00
2023-04-02T10:25:07.053Z,630.00
2023-04-02T10:26:07.111Z,631.00
2023-04-02T10:27:07.165Z,633.00
2023-04-02T10:28:07.264Z,629.00
2023-04-02T10:29:07.316Z,631.00
2023-04-02T10:30:07.339Z,625.00
2023-04-02T10:31:07.481Z,627.00
2023-04-02T10:32:07.457Z,626.00
2023-04-02T10:33:07.566Z,623.00
2023-04-02T10:34:07.565Z,621.00
2023-04-02T10:35:07.675Z,617.00
2023-04-02T10:36:07.787Z,617.00
2023-04-02T10:37:07.720Z,619.00
2023-04-02T10:38:07.761Z,620.00
2023-04-02T10:39:07.853Z,620.00
2023-04-02T10:40:07.894Z,617.00
2023-04-02T10:41:07.964Z,613.00
2023-04-02T10:42:08.027Z,616.00
2023-04-02T10:43:08.061Z,616.00
2023-04-02T10:44:17.168Z,613.00
2023-04-02T10:45:09.162Z,613.00
2023-04-02T10:46:08.251Z,613.00
2023-04-02T10:47:08.210Z,613.00
2023-04-02T10:48:08.314Z,610.00
2023-04-02T10:49:08.231Z,617.00
2023-04-02T10:50:08.259Z,617.00
2023-04-02T10:51:08.268Z,618.00
2023-04-02T10:52:08.293Z,620.00
2023-04-02T10:53:08.349Z,625.00
2023-04-02T10:54:08.333Z,623.00
2023-04-02T10:55:08.369Z,624.00
2023-04-02T10:56:08.369Z,618.00
2023-04-02T10:57:08.440Z,618.00
2023-04-02T10:58:08.434Z,611.00
2023-04-02T10:59:08.429Z,621.00
2023-04-02T11:00:08.450Z,613.00
2023-04-02T11:01:08.530Z,612.00
2023-04-02T11:02:08.594Z,607.00
2023-04-02T11:03:08.722Z,610.00
2023-04-02T11:04:08.666Z,615.00
2023-04-02T11:05:08.746Z,617.00
2023-04-02T11:06:10.760Z,615.00
2023-04-02T11:07:14.598Z,620.00
2023-04-02T11:08:09.862Z,620.00
2023-04-02T11:09:08.874Z,621.00
2023-04-02T11:10:08.869Z,620.00
2023-04-02T11:11:08.941Z,621.00
2023-04-02T11:12:08.944Z,621.00
2023-04-02T11:13:08.978Z,621.00
2023-04-02T11:14:08.989Z,615.00
2023-04-02T11:15:08.983Z,614.00
2023-04-02T11:16:09.029Z,611.00
2023-04-02T11:17:09.041Z,616.00
2023-04-02T11:18:09.060Z,621.00
2023-04-02T11:19:09.052Z,624.00
2023-04-02T11:20:09.086Z,611.00
2023-04-02T11:21:09.116Z,611.00
2023-04-02T11:22:09.192Z,613.00
2023-04-02T11:23:09.282Z,613.00
2023-04-02T11:24:09.353Z,612.00
2023-04-02T11:25:09.409Z,618.00
2023-04-02T11:26:09.519Z,614.00
2023-04-02T11:27:09.555Z,619.00
2023-04-02T11:28:09.615Z,622.00
2023-04-02T11:29:09.685Z,619.00
2023-04-02T11:30:09.746Z,619.00
2023-04-02T11:31:09.792Z,619.00
2023-04-02T11:32:09.852Z,624.00
2023-04-02T11:33:09.960Z,620.00
2023-04-02T11:34:09.938Z,618.00
2023-04-02T11:35:10.003Z,613.00
2023-04-02T11:36:10.123Z,620.00
2023-04-02T11:37:10.126Z,621.00
2023-04-02T11:38:10.194Z,616.00
2023-04-02T11:39:16.922Z,614.00
2023-04-02T11:40:11.267Z,614.00
2023-04-02T11:41:10.283Z,614.00
2023-04-02T11:42:10.298Z,615.00
2023-04-02T11:43:10.304Z,616.00
2023-04-02T11:44:10.335Z,612.00
2023-04-02T11:45:10.370Z,612.00
2023-04-02T11:46:10.439Z,603.00
2023-04-02T11:47:10.399Z,602.00
2023-04-02T11:48:10.423Z,610.00
2023-04-02T11:49:10.422Z,606.00
2023-04-02T11:50:10.507Z,606.00
2023-04-02T11:51:10.465Z,606.00
2023-04-02T11:52:12.590Z,610.00
2023-04-02T11:53:10.523Z,614.00
2023-04-02T11:54:10.542Z,613.00
2023-04-02T11:55:10.621Z,609.00
2023-04-02T11:56:10.661Z,605.00
2023-04-02T11:57:10.751Z,604.00
2023-04-02T11:58:10.758Z,606.00
2023-04-02T11:59:10.837Z,606.00
2023-04-02T12:00:10.916Z,608.00
2023-04-02T12:01:10.940Z,606.00
2023-04-02T12:02:11.091Z,607.00
2023-04-02T12:03:11.118Z,604.00
2023-04-02T12:04:11.158Z,606.00
2023-04-02T12:05:11.275Z,610.00
2023-04-02T12:06:11.265Z,618.00
2023-04-02T12:07:11.339Z,611.00
2023-04-02T12:08:11.421Z,618.00
2023-04-02T12:09:11.477Z,618.00
2023-04-02T12:10:11.541Z,609.00
2023-04-02T12:11:11.605Z,612.00
2023-04-02T12:12:11.666Z,608.00
2023-04-02T12:13:11.714Z,608.00
2023-04-02T12:14:11.777Z,608.00
2023-04-02T12:15:11.838Z,605.00
2023-04-02T12:16:11.938Z,611.00
2023-04-02T12:17:12.234Z,615.00
2023-04-02T12:18:12.050Z,617.00
2023-04-02T12:19:12.119Z,608.00
2023-04-02T12:20:12.180Z,617.00
2023-04-02T12:21:12.234Z,616.00
2023-04-02T12:22:12.277Z,621.00
2023-04-02T12:23:12.335Z,616.00
2023-04-02T12:24:12.431Z,609.00
2023-04-02T12:25:12.477Z,614.00
2023-04-02T12:26:12.522Z,618.00
2023-04-02T12:27:12.589Z,620.00
2023-04-02T12:28:12.652Z,614.00
2023-04-02T12:29:12.732Z,611.00